< < Back
Terminal Aerodrome Forecast


Current Version              Previous Versions:   1  2  3  4  5  6  7  8  9  

Terminal Aerodrome Forecast

605
FTUS42 KMLB 251458 AAA
TAFMCO
TAF AMD
KMCO 251458Z 2515/2612 20006KT P6SM SCT035 BKN130
     FM252000 13009KT P6SM VCTS SCT045CB BKN250
     FM260100 15005KT P6SM SCT040 BKN120=

Latest METAR

707
SAUS70 KWBC 252300 RRC
MTRMCO
METAR KMCO 252253Z 17005KT 10SM FEW055 SCT300 34/19 A3003 RMK AO2 SLP168
CB DSNT N AND DSNT SW STNRY T03390194


USA.gov is the U.S. government's official web portal to all federal, state and local government web resources and services.